Time;durP1;ratioP1;P1;durP2;ratioP2;P2;SDS_P1;SDS_P2;PMS_P1;PMS_P2;Temp;Humidity;BMP_temperature;BMP_pressure;BME280_temperature;BME280_humidity;BME280_pressure;Samples;Min_cycle;Max_cycle;Signal;HPM_P1;HPM_P2
2022/09/24 00:00:56;;;;;;;;;;;;;;;-142.75;100.00;76804.53;5034697;28;20370;-67
2022/09/24 00:03:23;;;;;;;;;;;;;;;-142.75;100.00;76806.50;5034612;28;20324;-67
2022/09/24 00:05:49;;;;;;;;;;;;;;;-142.75;100.00;76810.44;5034706;28;19944;-67
2022/09/24 00:08:15;;;;;;;;;;;;;;;-142.75;100.00;76814.38;5015892;28;20003;-67
2022/09/24 00:10:43;;;;;;;;;;;;;;;-142.75;100.00;76804.53;5034499;28;19913;-67
2022/09/24 00:13:11;;;;;;;;;;;;;;;-142.75;100.00;76802.56;5016955;28;20287;-67
2022/09/24 00:15:40;;;;;;;;;;;;;;;-142.75;100.00;76802.56;5016588;28;19917;-67
2022/09/24 00:18:06;;;;;;;;;;;;;;;-142.75;100.00;76796.69;5034004;28;19935;-67
2022/09/24 00:20:32;;;;;;;;;;;;;;;-142.75;100.00;76810.44;5034357;28;19913;-67
2022/09/24 00:22:59;;;;;;;;;;;;;;;-142.75;100.00;76806.50;5034690;28;19946;-67
2022/09/24 00:28:08;;;;;;;;;;;;;;;-142.75;100.00;76796.69;5093123;28;19969;-69
2022/09/24 00:30:33;;;;;;;;;;;;;;;-142.75;100.00;76777.00;5094284;28;19916;-68
2022/09/24 00:32:58;;;;;;;;;;;;;;;-142.75;100.00;76763.22;5094234;28;19966;-68
2022/09/24 00:35:24;;;;;;;;;;;;;;;-142.75;100.00;76763.22;5094010;28;19959;-68
2022/09/24 00:37:49;;;;;;;;;;;;;;;-142.75;100.00;76773.06;5092365;28;20003;-68
2022/09/24 00:40:15;;;;;;;;;;;;;;;-142.75;100.00;76765.19;5093982;28;19919;-68
2022/09/24 00:42:40;;;;;;;;;;;;;;;-142.75;100.00;76759.28;5093978;28;20262;-68
2022/09/24 00:45:08;;;;;;;;;;;;;;;-142.75;100.00;76759.28;5092874;28;19965;-68
2022/09/24 00:47:36;;;;;;;;;;;;;;;-142.75;100.00;76763.22;5093665;28;19978;-68
2022/09/24 00:50:19;;;;;;;;;;;;;;;-142.75;100.00;76757.31;5093829;28;19920;-68
2022/09/24 00:52:59;;;;;;;;;;;;;;;-142.75;100.00;76749.44;5094034;28;19965;-69
2022/09/24 00:55:25;;;;;;;;;;;;;;;-142.75;100.00;76751.41;5093759;28;19912;-68
2022/09/24 00:57:55;;;;;;;;;;;;;;;-142.75;100.00;76767.16;5093389;28;19934;-68
2022/09/24 01:00:21;;;;;;;;;;;;;;;-142.75;100.00;76771.09;5093705;28;19912;-68
2022/09/24 01:02:48;;;;;;;;;;;;;;;-142.75;100.00;76769.13;5093562;28;19935;-68
2022/09/24 01:05:14;;;;;;;;;;;;;;;-142.75;100.00;76769.13;5093536;28;19912;-68
2022/09/24 01:07:39;;;;;;;;;;;;;;;-142.75;100.00;76777.00;5091889;28;20413;-69
2022/09/24 01:10:04;;;;;;;;;;;;;;;-142.75;100.00;76775.03;5093512;28;20418;-68
2022/09/24 01:12:47;;;;;;;;;;;;;;;-142.75;100.00;76769.13;5093477;28;19912;-68
2022/09/24 01:15:20;;;;;;;;;;;;;;;-142.75;100.00;76775.03;5093246;28;20369;-68
2022/09/24 01:17:58;;;;;;;;;;;;;;;-142.75;100.00;76771.09;5092859;28;19944;-68
2022/09/24 01:20:26;;;;;;;;;;;;;;;-142.75;100.00;76771.09;5092812;28;19969;-68
2022/09/24 01:22:54;;;;;;;;;;;;;;;-142.75;100.00;76780.94;5093203;28;19919;-69
2022/09/24 01:25:32;;;;;;;;;;;;;;;-142.75;100.00;76784.88;5093096;28;19923;-68
2022/09/24 01:28:09;;;;;;;;;;;;;;;-142.75;100.00;76775.03;5092755;28;19957;-68
2022/09/24 01:30:37;;;;;;;;;;;;;;;-142.75;100.00;76786.84;5093095;28;19912;-68
2022/09/24 01:33:06;;;;;;;;;;;;;;;-142.75;100.00;76792.75;5093071;28;19912;-68
2022/09/24 01:35:36;;;;;;;;;;;;;;;-142.75;100.00;76798.66;5092901;28;20003;-68
2022/09/24 01:38:15;;;;;;;;;;;;;;;-142.75;100.00;76790.78;5092663;28;19919;-68
2022/09/24 01:40:41;;;;;;;;;;;;;;;-142.75;100.00;76798.66;5092988;28;19916;-68
2022/09/24 01:43:07;;;;;;;;;;;;;;;-142.75;100.00;76798.66;5092845;28;20370;-68
2022/09/24 01:45:34;;;;;;;;;;;;;;;-142.75;100.00;76808.50;5092956;28;19920;-68
2022/09/24 01:47:59;;;;;;;;;;;;;;;-142.75;100.00;76806.50;5092473;28;19980;-68
2022/09/24 01:50:27;;;;;;;;;;;;;;;-142.75;100.00;76806.50;5091470;28;20413;-68
2022/09/24 01:52:57;;;;;;;;;;;;;;;-142.75;100.00;76806.50;5092651;28;19919;-68
2022/09/24 01:55:24;;;;;;;;;;;;;;;-142.75;100.00;76802.56;5092572;28;20332;-68
2022/09/24 01:57:53;;;;;;;;;;;;;;;-142.75;100.00;76808.50;5092388;28;19943;-68
2022/09/24 02:00:20;;;;;;;;;;;;;;;-142.75;100.00;76806.50;5092701;28;19912;-69
2022/09/24 02:03:03;;;;;;;;;;;;;;;-142.75;100.00;76800.63;5092655;28;19912;-68
2022/09/24 02:05:35;;;;;;;;;;;;;;;-142.75;100.00;76794.69;5092490;28;19912;-68
2022/09/24 02:08:21;;;;;;;;;;;;;;;-142.75;100.00;76790.78;5092325;28;19912;-68
2022/09/24 02:11:05;;;;;;;;;;;;;;;-142.75;100.00;76782.91;5090802;28;19965;-68
2022/09/24 02:13:37;;;;;;;;;;;;;;;-142.75;100.00;76788.81;5089188;28;19913;-68
2022/09/24 02:16:04;;;;;;;;;;;;;;;-142.75;100.00;76792.75;5052238;28;19963;-69
2022/09/24 02:18:33;;;;;;;;;;;;;;;-142.75;100.00;76782.91;5051915;28;19913;-68
2022/09/24 02:21:01;;;;;;;;;;;;;;;-142.75;100.00;76782.91;5052169;28;19959;-68
2022/09/24 02:23:27;;;;;;;;;;;;;;;-142.75;100.00;76786.84;5051983;28;19917;-68
2022/09/24 02:25:56;;;;;;;;;;;;;;;-142.75;100.00;76778.97;5052175;28;19920;-68
2022/09/24 02:28:22;;;;;;;;;;;;;;;-142.75;100.00;76773.06;5051779;28;20421;-68
2022/09/24 02:30:50;;;;;;;;;;;;;;;-142.75;100.00;76769.13;5056271;28;20015;-69
2022/09/24 02:36:00;;;;;;;;;;;;;;;-142.75;100.00;76771.09;5058797;28;19939;-68
2022/09/24 02:38:25;;;;;;;;;;;;;;;-142.75;100.00;76775.03;5058387;28;20374;-68
2022/09/24 02:40:51;;;;;;;;;;;;;;;-142.75;100.00;76769.13;5058617;28;19939;-68
2022/09/24 02:43:17;;;;;;;;;;;;;;;-142.75;100.00;76767.16;5058427;28;19920;-68
2022/09/24 02:45:42;;;;;;;;;;;;;;;-142.75;100.00;76769.13;5096676;28;19916;-69
2022/09/24 02:48:07;;;;;;;;;;;;;;;-142.75;100.00;76759.28;5098588;28;19912;-69
2022/09/24 02:50:32;;;;;;;;;;;;;;;-142.75;100.00;76763.22;5098827;28;19912;-68
2022/09/24 02:52:57;;;;;;;;;;;;;;;-142.75;100.00;76753.38;5098855;28;20282;-69
2022/09/24 02:55:23;;;;;;;;;;;;;;;-142.75;100.00;76751.41;5098605;28;20567;-69
2022/09/24 02:57:48;;;;;;;;;;;;;;;-142.75;100.00;76751.41;5098489;28;19912;-68
2022/09/24 03:00:13;;;;;;;;;;;;;;;-142.75;100.00;76755.34;5098745;28;20412;-68
2022/09/24 03:02:38;;;;;;;;;;;;;;;-142.75;100.00;76751.41;5098790;28;19918;-68
2022/09/24 03:05:04;;;;;;;;;;;;;;;-142.75;100.00;76747.47;5098649;28;19976;-68
2022/09/24 03:07:29;;;;;;;;;;;;;;;-142.75;100.00;76761.25;5098373;28;19912;-68
2022/09/24 03:09:54;;;;;;;;;;;;;;;-142.75;100.00;76751.41;5098520;28;19918;-68
2022/09/24 03:12:19;;;;;;;;;;;;;;;-142.75;100.00;76747.47;5098663;28;19916;-68
2022/09/24 03:14:45;;;;;;;;;;;;;;;-142.75;100.00;76747.47;5083850;28;20462;-69
2022/09/24 03:17:10;;;;;;;;;;;;;;;-142.75;100.00;76745.50;5077928;28;19917;-68
2022/09/24 03:19:36;;;;;;;;;;;;;;;-142.75;100.00;76735.66;5078219;28;19923;-68
2022/09/24 03:22:01;;;;;;;;;;;;;;;-142.75;100.00;76729.75;5078296;28;19920;-68
2022/09/24 03:24:26;;;;;;;;;;;;;;;-142.75;100.00;76719.91;5077956;28;19956;-68
2022/09/24 03:26:51;;;;;;;;;;;;;;;-142.75;100.00;76712.03;5077958;28;20374;-68
2022/09/24 03:30:58;;;;;;;;;;;;;;;-142.75;100.00;76700.22;5078254;28;19919;-68
2022/09/24 03:32:01;;;;;;;;;;;;;;;-142.75;100.00;76704.16;5078015;28;20397;-68
2022/09/24 03:34:27;;;;;;;;;;;;;;;-142.75;100.00;76696.28;5077972;28;19966;-68
2022/09/24 03:36:52;;;;;;;;;;;;;;;-142.75;100.00;76696.28;5077647;28;20005;-68
2022/09/24 03:39:17;;;;;;;;;;;;;;;-142.75;100.00;76694.31;5076778;28;20002;-68
2022/09/24 03:41:42;;;;;;;;;;;;;;;-142.75;100.00;76704.16;5075755;28;20282;-68
2022/09/24 03:44:07;;;;;;;;;;;;;;;-142.75;100.00;76708.09;5077807;28;19916;-68
2022/09/24 03:46:33;;;;;;;;;;;;;;;-142.75;100.00;76694.31;5094868;28;20025;-67
2022/09/24 03:48:59;;;;;;;;;;;;;;;-142.75;100.00;76696.28;5094892;28;20325;-68
2022/09/24 03:51:24;;;;;;;;;;;;;;;-142.75;100.00;76700.22;5095005;28;19999;-68
2022/09/24 03:53:50;;;;;;;;;;;;;;;-142.75;100.00;76696.28;5094838;28;19954;-68
2022/09/24 03:56:15;;;;;;;;;;;;;;;-142.75;100.00;76700.22;5094817;28;19927;-68
2022/09/24 03:58:40;;;;;;;;;;;;;;;-142.75;100.00;76696.28;5094623;28;19948;-68
2022/09/24 04:01:06;;;;;;;;;;;;;;;-142.75;100.00;76704.16;5095098;28;20515;-69
2022/09/24 04:03:31;;;;;;;;;;;;;;;-142.75;100.00;76708.09;5093518;28;19966;-68
2022/09/24 04:05:56;;;;;;;;;;;;;;;-142.75;100.00;76698.25;5093528;28;19934;-68
2022/09/24 04:08:22;;;;;;;;;;;;;;;-142.75;100.00;76700.22;5094446;28;19912;-68
2022/09/24 04:10:48;;;;;;;;;;;;;;;-142.75;100.00;76698.25;5094857;28;19919;-68
2022/09/24 04:13:14;;;;;;;;;;;;;;;-142.75;100.00;76690.38;5093488;28;20285;-67
2022/09/24 04:15:39;;;;;;;;;;;;;;;-142.75;100.00;76696.28;5065781;28;19927;-68
2022/09/24 04:18:05;;;;;;;;;;;;;;;-142.75;100.00;76694.31;5074012;28;20428;-68
2022/09/24 04:20:30;;;;;;;;;;;;;;;-142.75;100.00;76674.63;5074271;28;19956;-68
2022/09/24 04:22:56;;;;;;;;;;;;;;;-142.75;100.00;76678.56;5074168;28;20294;-68
2022/09/24 04:25:22;;;;;;;;;;;;;;;-142.75;100.00;76678.56;5074015;28;19970;-68
2022/09/24 04:27:51;;;;;;;;;;;;;;;-142.75;100.00;76676.59;5073885;28;19912;-68
2022/09/24 04:30:17;;;;;;;;;;;;;;;-142.75;100.00;76686.44;5074063;28;19912;-68
2022/09/24 04:32:42;;;;;;;;;;;;;;;-142.75;100.00;76672.66;5073974;28;19919;-68
2022/09/24 04:35:08;;;;;;;;;;;;;;;-142.75;100.00;76666.75;5073883;28;20251;-68
2022/09/24 04:37:33;;;;;;;;;;;;;;;-142.75;100.00;76658.88;5072286;28;20344;-68
2022/09/24 04:39:58;;;;;;;;;;;;;;;-142.75;100.00;76654.94;5073908;28;19919;-68
2022/09/24 04:42:23;;;;;;;;;;;;;;;-142.75;100.00;76652.97;5073826;28;19912;-68
2022/09/24 04:44:49;;;;;;;;;;;;;;;-142.75;100.00;76658.88;5073714;28;19965;-68
2022/09/24 04:47:14;;;;;;;;;;;;;;;-142.75;100.00;76651.00;5073451;28;19965;-68
2022/09/24 04:49:42;;;;;;;;;;;;;;;-142.75;100.00;76651.00;5073721;28;19913;-68
2022/09/24 04:52:07;;;;;;;;;;;;;;;-142.75;100.00;76652.97;5072310;28;19920;-68
2022/09/24 04:54:32;;;;;;;;;;;;;;;-142.75;100.00;76645.09;5073430;28;19913;-68
2022/09/24 04:56:57;;;;;;;;;;;;;;;-142.75;100.00;76645.09;5073204;28;20301;-68
2022/09/24 04:59:23;;;;;;;;;;;;;;;-142.75;100.00;76654.94;5073471;28;19927;-68
2022/09/24 05:01:48;;;;;;;;;;;;;;;-142.75;100.00;76651.00;5073454;28;19917;-68
2022/09/24 05:04:13;;;;;;;;;;;;;;;-142.75;100.00;76652.97;5073399;28;19999;-68
2022/09/24 05:06:38;;;;;;;;;;;;;;;-142.75;100.00;76662.81;5073036;28;19965;-68
2022/09/24 05:09:04;;;;;;;;;;;;;;;-142.75;100.00;76662.81;5073301;28;20362;-68
2022/09/24 05:11:29;;;;;;;;;;;;;;;-142.75;100.00;76660.84;5073279;28;19966;-68
2022/09/24 05:13:54;;;;;;;;;;;;;;;-142.75;100.00;76672.66;5071877;28;20362;-68
2022/09/24 05:16:20;;;;;;;;;;;;;;;-142.75;100.00;76672.66;5073064;28;20015;-69
2022/09/24 05:18:45;;;;;;;;;;;;;;;-142.75;100.00;76678.56;5072885;28;19935;-69
2022/09/24 05:21:10;;;;;;;;;;;;;;;-142.75;100.00;76672.66;5072997;28;20263;-69
2022/09/24 05:23:35;;;;;;;;;;;;;;;-142.75;100.00;76678.56;5072847;28;19916;-69
2022/09/24 05:28:44;;;;;;;;;;;;;;;-142.75;100.00;76674.63;5072843;28;19958;-69
2022/09/24 05:31:09;;;;;;;;;;;;;;;-142.75;100.00;76674.63;5072877;28;19912;-69
2022/09/24 05:33:35;;;;;;;;;;;;;;;-142.75;100.00;76676.59;5072719;28;19917;-69
2022/09/24 05:36:00;;;;;;;;;;;;;;;-142.75;100.00;76676.59;5072802;28;19925;-69
2022/09/24 05:38:26;;;;;;;;;;;;;;;-142.75;100.00;76672.66;5072453;28;19919;-69
2022/09/24 05:40:51;;;;;;;;;;;;;;;-142.75;100.00;76672.66;5072731;28;19913;-69
2022/09/24 05:43:18;;;;;;;;;;;;;;;-142.75;100.00;76664.78;5072677;28;19913;-68
2022/09/24 05:45:44;;;;;;;;;;;;;;;-142.75;100.00;76672.66;5072702;28;19913;-69
2022/09/24 05:48:09;;;;;;;;;;;;;;;-142.75;100.00;76652.97;5072327;28;19913;-69
2022/09/24 05:50:34;;;;;;;;;;;;;;;-142.75;100.00;76664.78;5071326;28;19912;-69
2022/09/24 05:53:00;;;;;;;;;;;;;;;-142.75;100.00;76670.69;5072710;28;19920;-69
2022/09/24 05:55:26;;;;;;;;;;;;;;;-142.75;100.00;76676.59;5072393;28;20328;-69
2022/09/24 05:57:51;;;;;;;;;;;;;;;-142.75;100.00;76680.53;5072228;28;19995;-68
2022/09/24 06:00:16;;;;;;;;;;;;;;;-142.75;100.00;76674.63;5072419;28;20011;-69
2022/09/24 06:02:41;;;;;;;;;;;;;;;-142.75;100.00;76674.63;5072372;28;19912;-69
2022/09/24 06:05:07;;;;;;;;;;;;;;;-142.75;100.00;76680.53;5071744;28;19920;-69
2022/09/24 06:07:32;;;;;;;;;;;;;;;-142.75;100.00;76664.78;5072141;28;19912;-69
2022/09/24 06:10:00;;;;;;;;;;;;;;;-142.75;100.00;76666.75;5071085;28;19996;-69
2022/09/24 06:12:26;;;;;;;;;;;;;;;-142.75;100.00;76662.81;5072346;28;19969;-69
2022/09/24 06:14:52;;;;;;;;;;;;;;;-142.75;100.00;76664.78;5072187;28;19917;-69
2022/09/24 06:17:17;;;;;;;;;;;;;;;-142.75;100.00;76660.84;5071891;28;19924;-68
2022/09/24 06:19:43;;;;;;;;;;;;;;;-142.75;100.00;76668.72;5072196;28;19913;-69
2022/09/24 06:22:08;;;;;;;;;;;;;;;-142.75;100.00;76664.78;5072197;28;19920;-69
2022/09/24 06:24:34;;;;;;;;;;;;;;;-142.75;100.00;76668.72;5092733;22;20015;-66
2022/09/24 06:26:59;;;;;;;;;;;;;;;-142.75;100.00;76649.03;5069878;28;19916;-66
2022/09/24 06:29:24;;;;;;;;;;;;;;;-142.75;100.00;76666.75;5071508;28;19913;-65
2022/09/24 06:31:52;;;;;;;;;;;;;;;-142.75;100.00;76654.94;5072214;28;19936;-67
2022/09/24 06:34:17;;;;;;;;;;;;;;;-142.75;100.00;76666.75;5071958;28;19916;-67
2022/09/24 06:36:42;;;;;;;;;;;;;;;-142.75;100.00;76660.84;5053763;28;19924;-66
2022/09/24 06:39:08;;;;;;;;;;;;;;;-142.75;100.00;76652.97;5054042;28;19935;-67
2022/09/24 06:41:33;;;;;;;;;;;;;;;-142.75;100.00;76670.69;5071993;28;19920;-66
2022/09/24 06:43:58;;;;;;;;;;;;;;;-142.75;100.00;76674.63;5071940;28;19913;-64
2022/09/24 06:46:24;;;;;;;;;;;;;;;-142.75;100.00;76672.66;5071920;28;19919;-65
2022/09/24 06:48:50;;;;;;;;;;;;;;;-142.75;100.00;76680.53;5071634;28;19915;-66
2022/09/24 06:51:15;;;;;;;;;;;;;;;-142.75;100.00;76688.41;5071934;28;19935;-66
2022/09/24 06:53:40;;;;;;;;;;;;;;;-142.75;100.00;76682.50;5071922;28;19974;-66
2022/09/24 06:56:06;;;;;;;;;;;;;;;-142.75;100.00;76686.44;5059472;28;19917;-66
2022/09/24 06:58:32;;;;;;;;;;;;;;;-142.75;100.00;76688.41;5051513;28;19952;-66
2022/09/24 07:00:59;;;;;;;;;;;;;;;-142.75;100.00;76696.28;5051791;28;20008;-65
2022/09/24 07:03:25;;;;;;;;;;;;;;;-142.75;100.00;76692.34;5051720;28;20378;-66
2022/09/24 07:05:50;;;;;;;;;;;;;;;-142.75;100.00;76714.00;5051638;28;19917;-66
2022/09/24 07:08:16;;;;;;;;;;;;;;;-142.75;100.00;76704.16;5033577;28;20328;-67
2022/09/24 07:10:42;;;;;;;;;;;;;;;-142.75;100.00;76704.16;5051686;28;19920;-66
2022/09/24 07:13:07;;;;;;;;;;;;;;;-142.75;100.00;76702.19;5033818;28;19912;-66
2022/09/24 07:15:33;;;;;;;;;;;;;;;-142.75;100.00;76700.22;5051531;28;19919;-66
2022/09/24 07:17:58;;;;;;;;;;;;;;;-142.75;100.00;76708.09;5035715;28;20000;-65
2022/09/24 07:20:26;;;;;;;;;;;;;;;-142.75;100.00;76706.13;5055403;28;19946;-66
2022/09/24 07:22:52;;;;;;;;;;;;;;;-142.75;100.00;76714.00;5055389;28;20007;-66
2022/09/24 07:25:17;;;;;;;;;;;;;;;-142.75;100.00;76715.97;5055139;28;19960;-66
2022/09/24 07:27:42;;;;;;;;;;;;;;;-142.75;100.00;76714.00;5037053;28;19916;-66
2022/09/24 07:30:08;;;;;;;;;;;;;;;-142.75;100.00;76715.97;5037299;28;19913;-67
2022/09/24 07:32:34;;;;;;;;;;;;;;;-142.75;100.00;76715.97;5055018;28;19959;-66
2022/09/24 07:34:59;;;;;;;;;;;;;;;-142.75;100.00;76715.97;5055102;28;19959;-65
2022/09/24 07:37:24;;;;;;;;;;;;;;;-142.75;100.00;76719.91;5054620;28;19935;-68
2022/09/24 07:39:49;;;;;;;;;;;;;;;-142.75;100.00;76731.72;5061009;28;19917;-67
2022/09/24 07:42:14;;;;;;;;;;;;;;;-142.75;100.00;76715.97;5068810;28;19916;-66
2022/09/24 07:44:40;;;;;;;;;;;;;;;-142.75;100.00;76741.56;5072661;28;20326;-68
2022/09/24 07:47:05;;;;;;;;;;;;;;;-142.75;100.00;76747.47;5068771;28;20180;-67
2022/09/24 07:49:31;;;;;;;;;;;;;;;-142.75;100.00;76735.66;5050592;28;19913;-68
2022/09/24 07:51:57;;;;;;;;;;;;;;;-142.75;100.00;76729.75;5071645;28;20381;-67
2022/09/24 07:54:22;;;;;;;;;;;;;;;-142.75;100.00;76743.53;5073933;28;19917;-67
2022/09/24 07:56:47;;;;;;;;;;;;;;;-142.75;100.00;76743.53;5073858;28;19920;-66
2022/09/24 07:59:13;;;;;;;;;;;;;;;-142.75;100.00;76749.44;5059650;28;20002;-66
2022/09/24 08:01:39;;;;;;;;;;;;;;;-142.75;100.00;76757.31;5062180;28;19923;-67
2022/09/24 08:04:04;;;;;;;;;;;;;;;-142.75;100.00;76747.47;5070556;28;20389;-67
2022/09/24 08:06:33;;;;;;;;;;;;;;;-142.75;100.00;76751.41;5053875;28;19912;-67
2022/09/24 08:08:58;;;;;;;;;;;;;;;-142.75;100.00;76747.47;5040590;28;19967;-66
2022/09/24 08:11:24;;;;;;;;;;;;;;;-142.75;100.00;76747.47;5061232;28;20367;-65
2022/09/24 08:13:49;;;;;;;;;;;;;;;-142.75;100.00;76743.53;5062303;28;19999;-67
2022/09/24 08:16:15;;;;;;;;;;;;;;;-142.75;100.00;76739.59;5068278;28;19921;-63
2022/09/24 08:18:42;;;;;;;;;;;;;;;-142.75;100.00;76749.44;5063672;28;20007;-67
2022/09/24 08:21:10;;;;;;;;;;;;;;;-142.75;100.00;76747.47;5054838;28;20205;-66
2022/09/24 08:23:36;;;;;;;;;;;;;;;-142.75;100.00;76743.53;5068218;28;20011;-66
2022/09/24 08:26:02;;;;;;;;;;;;;;;-142.75;100.00;76737.63;5060794;28;19947;-67
2022/09/24 08:28:27;;;;;;;;;;;;;;;-142.75;100.00;76735.66;5063826;28;19963;-66
2022/09/24 08:30:57;;;;;;;;;;;;;;;-142.75;100.00;76735.66;5066606;28;19928;-67
2022/09/24 08:33:22;;;;;;;;;;;;;;;-142.75;100.00;76743.53;5059068;28;20592;-66
2022/09/24 08:35:48;;;;;;;;;;;;;;;-142.75;100.00;76747.47;5050488;28;20027;-66
2022/09/24 08:38:13;;;;;;;;;;;;;;;-142.75;100.00;76747.47;5052604;28;20362;-68
2022/09/24 08:40:43;;;;;;;;;;;;;;;-142.75;100.00;76763.22;5064946;28;19921;-68
2022/09/24 08:43:26;;;;;;;;;;;;;;;-142.75;100.00;76759.28;5061321;28;19913;-69
2022/09/24 08:48:41;;;;;;;;;;;;;;;-142.75;100.00;76771.09;5062191;28;20012;-68
2022/09/24 08:51:11;;;;;;;;;;;;;;;-142.75;100.00;76775.03;5062244;28;19920;-68
2022/09/24 08:53:51;;;;;;;;;;;;;;;-142.75;100.00;76780.94;5070537;28;19913;-69
2022/09/24 08:56:19;;;;;;;;;;;;;;;-142.75;100.00;76778.97;5049438;28;19927;-67
2022/09/24 08:58:47;;;;;;;;;;;;;;;-142.75;100.00;76794.69;5067659;28;19913;-67
2022/09/24 09:01:23;;;;;;;;;;;;;;;-142.75;100.00;76792.75;5055691;28;19913;-66
2022/09/24 09:03:56;;;;;;;;;;;;;;;-142.75;100.00;76792.75;5053256;28;19913;-65
2022/09/24 09:06:21;;;;;;;;;;;;;;;-142.75;100.00;76798.66;5053270;28;20371;-65
2022/09/24 09:08:49;;;;;;;;;;;;;;;-142.75;100.00;76804.53;5053141;28;19947;-65
2022/09/24 09:11:15;;;;;;;;;;;;;;;-142.75;100.00;76802.56;5053214;28;19913;-65
2022/09/24 09:13:44;;;;;;;;;;;;;;;-142.75;100.00;76800.63;5053190;28;19919;-65
2022/09/24 09:16:28;;;;;;;;;;;;;;;-142.75;100.00;76798.66;5035184;28;19917;-64
2022/09/24 09:18:57;;;;;;;;;;;;;;;-142.75;100.00;76802.56;5052869;28;20398;-65
2022/09/24 09:21:27;;;;;;;;;;;;;;;-142.75;100.00;76810.44;5053126;28;20042;-66
2022/09/24 09:23:54;;;;;;;;;;;;;;;-142.75;100.00;76812.41;5052935;28;19940;-66
2022/09/24 09:26:20;;;;;;;;;;;;;;;-142.75;100.00;76810.44;5052989;28;20290;-65
2022/09/24 09:28:46;;;;;;;;;;;;;;;-142.75;100.00;76814.38;5052656;28;19913;-66
2022/09/24 09:31:17;;;;;;;;;;;;;;;-142.75;100.00;76816.34;5052849;28;19920;-65
2022/09/24 09:33:58;;;;;;;;;;;;;;;-142.75;100.00;76814.38;5052863;28;19940;-65
2022/09/24 09:36:29;;;;;;;;;;;;;;;-142.75;100.00;76814.38;5052763;28;19943;-66
2022/09/24 09:38:57;;;;;;;;;;;;;;;-142.75;100.00;76806.50;5052449;28;19917;-65
2022/09/24 09:41:43;;;;;;;;;;;;;;;-142.75;100.00;76800.63;5052266;28;19924;-66
2022/09/24 09:44:19;;;;;;;;;;;;;;;-142.75;100.00;76810.44;5052237;28;20283;-66
2022/09/24 09:47:05;;;;;;;;;;;;;;;-142.75;100.00;76800.63;5034574;28;19998;-66
2022/09/24 09:49:33;;;;;;;;;;;;;;;-142.75;100.00;76802.56;5052474;28;19917;-65
2022/09/24 09:52:01;;;;;;;;;;;;;;;-142.75;100.00;76798.66;5052503;28;19916;-65
2022/09/24 09:54:36;;;;;;;;;;;;;;;-142.75;100.00;76806.50;5052446;28;19956;-65
2022/09/24 09:57:02;;;;;;;;;;;;;;;-142.75;100.00;76806.50;5034344;28;20302;-64
2022/09/24 09:59:29;;;;;;;;;;;;;;;-142.75;100.00;76814.38;5052438;28;19919;-66
2022/09/24 10:01:55;;;;;;;;;;;;;;;-142.75;100.00;76800.63;5052405;28;19913;-65
2022/09/24 10:04:27;;;;;;;;;;;;;;;-142.75;100.00;76798.66;5052357;28;19920;-64
2022/09/24 10:07:02;;;;;;;;;;;;;;;-142.75;100.00;76794.69;5052059;28;20039;-66
2022/09/24 10:09:27;;;;;;;;;;;;;;;-142.75;100.00;76784.88;5052300;28;19913;-66
2022/09/24 10:11:52;;;;;;;;;;;;;;;-142.75;100.00;76800.63;5052288;28;19917;-66
2022/09/24 10:14:19;;;;;;;;;;;;;;;-142.75;100.00;76796.69;5034427;28;19913;-66
2022/09/24 10:16:53;;;;;;;;;;;;;;;-142.75;100.00;76808.50;5051849;28;19923;-67
2022/09/24 10:19:20;;;;;;;;;;;;;;;-142.75;100.00;76794.69;5052190;28;19917;-66
2022/09/24 10:21:46;;;;;;;;;;;;;;;-142.75;100.00;76804.53;5052161;28;19919;-66
2022/09/24 10:24:15;;;;;;;;;;;;;;;-142.75;100.00;76796.69;5051957;28;19921;-66
2022/09/24 10:26:41;;;;;;;;;;;;;;;-142.75;100.00;76794.69;5051817;28;19952;-65
2022/09/24 10:30:43;;;;;;;;;;;;;;;-142.75;100.00;76794.69;5052110;28;19917;-66
2022/09/24 10:32:38;;;;;;;;;;;;;;;-142.75;100.00;76798.66;4947604;28;19957;-65
2022/09/24 10:35:17;;;;;;;;;;;;;;;-142.75;100.00;76806.50;5051275;28;19917;-65
2022/09/24 10:37:49;;;;;;;;;;;;;;;-142.75;100.00;76798.66;5033918;28;19965;-65
2022/09/24 10:40:14;;;;;;;;;;;;;;;-142.75;100.00;76792.75;5053127;28;19958;-66
2022/09/24 10:42:40;;;;;;;;;;;;;;;-142.75;100.00;76790.78;5034056;28;19963;-66
2022/09/24 10:45:09;;;;;;;;;;;;;;;-142.75;100.00;76806.50;5051853;28;19919;-65
2022/09/24 10:47:42;;;;;;;;;;;;;;;-142.75;100.00;76800.63;5051521;28;20279;-66
2022/09/24 10:50:26;;;;;;;;;;;;;;;-142.75;100.00;76798.66;5034124;28;19947;-66
2022/09/24 10:52:54;;;;;;;;;;;;;;;-142.75;100.00;76798.66;5055979;28;19912;-66
2022/09/24 10:55:36;;;;;;;;;;;;;;;-142.75;100.00;76810.44;5055816;28;20383;-65
2022/09/24 10:58:13;;;;;;;;;;;;;;;-142.75;100.00;76802.56;5055590;28;20526;-65
2022/09/24 11:00:39;;;;;;;;;;;;;;;-142.75;100.00;76822.25;5055768;28;19913;-66
2022/09/24 11:03:23;;;;;;;;;;;;;;;-142.75;100.00;76812.41;5055736;28;19999;-66
2022/09/24 11:05:57;;;;;;;;;;;;;;;-142.75;100.00;76806.50;5055634;28;19920;-65
2022/09/24 11:08:31;;;;;;;;;;;;;;;-142.75;100.00;76814.38;5055328;28;19912;-66
2022/09/24 11:11:14;;;;;;;;;;;;;;;-142.75;100.00;76808.50;5055606;28;19923;-66
2022/09/24 11:13:39;;;;;;;;;;;;;;;-142.75;100.00;76822.25;5055753;28;19917;-66
2022/09/24 11:16:13;;;;;;;;;;;;;;;-142.75;100.00;76818.31;5055413;28;19923;-66
2022/09/24 11:18:39;;;;;;;;;;;;;;;-142.75;100.00;76822.25;5037276;28;20302;-66
2022/09/24 11:21:07;;;;;;;;;;;;;;;-142.75;100.00;76826.19;5037449;28;20000;-65
2022/09/24 11:23:43;;;;;;;;;;;;;;;-142.75;100.00;76838.00;5060344;28;19951;-64
2022/09/24 11:26:14;;;;;;;;;;;;;;;-142.75;100.00;76808.50;5065633;28;19969;-65
2022/09/24 11:28:58;;;;;;;;;;;;;;;-142.75;100.00;76810.44;5064428;28;19952;-66
2022/09/24 11:31:33;;;;;;;;;;;;;;;-142.75;100.00;76804.53;5065586;28;19916;-65
2022/09/24 11:34:07;;;;;;;;;;;;;;;-142.75;100.00;76814.38;5064719;28;19913;-65
2022/09/24 11:36:44;;;;;;;;;;;;;;;-142.75;100.00;76814.38;5063839;28;20439;-66
2022/09/24 11:39:28;;;;;;;;;;;;;;;-142.75;100.00;76814.38;5045623;28;20007;-65
2022/09/24 11:42:05;;;;;;;;;;;;;;;-142.75;100.00;76820.28;5063322;28;20374;-66
2022/09/24 11:44:35;;;;;;;;;;;;;;;-142.75;100.00;76808.50;5068252;28;19917;-65
2022/09/24 11:47:20;;;;;;;;;;;;;;;-142.75;100.00;76804.53;5046487;28;20367;-66
2022/09/24 11:50:03;;;;;;;;;;;;;;;-142.75;100.00;76790.78;5057428;28;19913;-66
2022/09/24 11:52:34;;;;;;;;;;;;;;;-142.75;100.00;76778.97;5072033;28;19916;-63
2022/09/24 11:55:17;;;;;;;;;;;;;;;-142.75;100.00;76747.47;5074594;28;19922;-65
2022/09/24 11:57:45;;;;;;;;;;;;;;;-142.75;100.00;76755.34;5071136;28;19971;-66
2022/09/24 12:00:13;;;;;;;;;;;;;;;-142.75;100.00;76767.16;5074714;28;19924;-66
2022/09/24 12:02:41;;;;;;;;;;;;;;;-142.75;100.00;76765.19;5073801;28;19913;-66
2022/09/24 12:05:06;;;;;;;;;;;;;;;-142.75;100.00;76739.59;5056575;28;20412;-66
2022/09/24 12:07:35;;;;;;;;;;;;;;;-142.75;100.00;76745.50;5073806;28;19912;-66
2022/09/24 12:10:03;;;;;;;;;;;;;;;-142.75;100.00;76739.59;5074315;28;20008;-66
2022/09/24 12:12:38;;;;;;;;;;;;;;;-142.75;100.00;76743.53;5074474;28;19912;-66
2022/09/24 12:15:06;;;;;;;;;;;;;;;-142.75;100.00;76753.38;5074609;28;20335;-66
2022/09/24 12:17:31;;;;;;;;;;;;;;;-142.75;100.00;76761.25;5074097;28;19977;-65
2022/09/24 12:20:00;;;;;;;;;;;;;;;-142.75;100.00;76735.66;5074277;28;19992;-66
2022/09/24 12:22:26;;;;;;;;;;;;;;;-142.75;100.00;76747.47;5056368;28;20062;-66
2022/09/24 12:24:59;;;;;;;;;;;;;;;-142.75;100.00;76741.56;5099018;22;19953;-69
2022/09/24 12:27:30;;;;;;;;;;;;;;;-142.75;100.00;76757.31;5092582;28;19916;-70
2022/09/24 12:33:00;;;;;;;;;;;;;;;-142.75;100.00;76747.47;5094404;28;19957;-69
2022/09/24 12:35:25;;;;;;;;;;;;;;;-142.75;100.00;76747.47;5092102;28;20014;-70
2022/09/24 12:37:53;;;;;;;;;;;;;;;-142.75;100.00;76759.28;5058131;28;20015;-69